Time;durP1;ratioP1;P1;durP2;ratioP2;P2;SDS_P1;SDS_P2;PMS_P1;PMS_P2;Temp;Humidity;BMP_temperature;BMP_pressure;BME280_temperature;BME280_humidity;BME280_pressure;Samples;Min_cycle;Max_cycle;Signal;HPM_P1;HPM_P2
2021/11/12 00:13:20;;;;;;;;;;;;;;;;;;5009090;28;20166;-87
2021/11/12 00:15:56;;;;;;;;;;;;;;;;;;5012987;28;20011;-88
2021/11/12 00:18:22;;;;;;;;;;;;;;;;;;5006587;28;19956;-87
2021/11/12 00:20:48;;;;;;;;;;;;;;;;;;5011728;28;20451;-88
2021/11/12 00:23:14;;;;;;;;;;;;;;;;;;5010493;28;19964;-86
2021/11/12 00:25:44;;;;;;;;;;;;;;;;;;5006628;28;20556;-89
2021/11/12 00:28:14;;;;;;;;;;;;;;;;;;5011830;28;19964;-89
2021/11/12 00:38:27;;;;;;;;;;;;;;;;;;5010692;28;20665;-89
2021/11/12 00:41:00;;;;;;;;;;;;;;;;;;5012316;28;19913;-88
2021/11/12 00:54:28;;;;;;;;;;;;;;;;;;5011866;28;19956;-90
2021/11/12 00:56:29;;;;;;;;;;;;;;;;;;5005273;28;22033;-89
2021/11/12 00:58:56;;;;;;;;;;;;;;;;;;5014764;28;19971;-88
2021/11/12 01:01:23;;;;;;;;;;;;;;;;;;5011839;28;20377;-89
2021/11/12 01:03:49;;;;;;;;;;;;;;;;;;5010248;28;19909;-90
2021/11/12 01:06:15;;;;;;;;;;;;;;;;;;5010385;28;20011;-89
2021/11/12 01:08:42;;;;;;;;;;;;;;;;;;5012709;28;19951;-88
2021/11/12 01:11:09;;;;;;;;;;;;;;;;;;5009298;28;19960;-88
2021/11/12 01:13:36;;;;;;;;;;;;;;;;;;5009482;28;20045;-89
2021/11/12 01:16:03;;;;;;;;;;;;;;;;;;5013107;28;19913;-89
2021/11/12 01:18:29;;;;;;;;;;;;;;;;;;5012119;28;20317;-89
2021/11/12 01:20:55;;;;;;;;;;;;;;;;;;5012165;28;20676;-89
2021/11/12 01:23:22;;;;;;;;;;;;;;;;;;5012282;28;20400;-90
2021/11/12 01:25:48;;;;;;;;;;;;;;;;;;5004877;28;19948;-90
2021/11/12 01:28:14;;;;;;;;;;;;;;;;;;5010915;28;19945;-89
2021/11/12 01:30:40;;;;;;;;;;;;;;;;;;5012108;28;19988;-89
2021/11/12 01:33:06;;;;;;;;;;;;;;;;;;5009883;28;19952;-89
2021/11/12 01:35:33;;;;;;;;;;;;;;;;;;5014914;28;19933;-90
2021/11/12 01:38:00;;;;;;;;;;;;;;;;;;5007773;28;19941;-89
2021/11/12 01:40:27;;;;;;;;;;;;;;;;;;5008868;28;19972;-90
2021/11/12 01:42:53;;;;;;;;;;;;;;;;;;5007893;28;20397;-86
2021/11/12 01:45:29;;;;;;;;;;;;;;;;;;4989610;28;19944;-86
2021/11/12 01:50:41;;;;;;;;;;;;;;;;;;5008342;28;19953;-88
2021/11/12 01:53:10;;;;;;;;;;;;;;;;;;5012722;28;19913;-87
2021/11/12 02:00:28;;;;;;;;;;;;;;;;;;5006010;28;19965;-85
2021/11/12 02:02:56;;;;;;;;;;;;;;;;;;5017820;28;19932;-85
2021/11/12 02:05:22;;;;;;;;;;;;;;;;;;5009624;28;19959;-85
2021/11/12 02:07:48;;;;;;;;;;;;;;;;;;5005885;28;20013;-87
2021/11/12 02:10:15;;;;;;;;;;;;;;;;;;5007754;28;19921;-87
2021/11/12 02:15:16;;;;;;;;;;;;;;;;;;5006656;28;20309;-86
2021/11/12 02:17:46;;;;;;;;;;;;;;;;;;5010320;28;20018;-86
2021/11/12 02:20:18;;;;;;;;;;;;;;;;;;5010412;28;19949;-86
2021/11/12 02:22:46;;;;;;;;;;;;;;;;;;5008804;28;19957;-84
2021/11/12 02:25:15;;;;;;;;;;;;;;;;;;5007260;28;19917;-85
2021/11/12 02:27:51;;;;;;;;;;;;;;;;;;5007877;28;19917;-85
2021/11/12 02:30:23;;;;;;;;;;;;;;;;;;5006652;28;20291;-86
2021/11/12 02:32:52;;;;;;;;;;;;;;;;;;4996614;28;20404;-83
2021/11/12 02:35:19;;;;;;;;;;;;;;;;;;5007130;28;19991;-85
2021/11/12 02:37:45;;;;;;;;;;;;;;;;;;5006978;28;20231;-84
2021/11/12 02:40:11;;;;;;;;;;;;;;;;;;5013041;28;19948;-84
2021/11/12 02:42:37;;;;;;;;;;;;;;;;;;5007531;28;19944;-84
2021/11/12 02:45:04;;;;;;;;;;;;;;;;;;5005801;28;19956;-84
2021/11/12 02:47:30;;;;;;;;;;;;;;;;;;5000565;28;19949;-85
2021/11/12 02:49:58;;;;;;;;;;;;;;;;;;5005493;28;20494;-84
2021/11/12 02:52:24;;;;;;;;;;;;;;;;;;5000819;28;19972;-81
2021/11/12 02:54:52;;;;;;;;;;;;;;;;;;5012758;28;19971;-84
2021/11/12 02:57:20;;;;;;;;;;;;;;;;;;5008894;28;19964;-85
2021/11/12 02:59:47;;;;;;;;;;;;;;;;;;5012813;28;19956;-83
2021/11/12 03:02:14;;;;;;;;;;;;;;;;;;5010627;28;19956;-84
2021/11/12 03:04:40;;;;;;;;;;;;;;;;;;5006923;28;19960;-84
2021/11/12 03:07:06;;;;;;;;;;;;;;;;;;5009611;28;19952;-83
2021/11/12 03:09:33;;;;;;;;;;;;;;;;;;5016827;28;19956;-84
2021/11/12 03:11:59;;;;;;;;;;;;;;;;;;5009351;28;19948;-84
2021/11/12 03:14:25;;;;;;;;;;;;;;;;;;5012028;28;19941;-84
2021/11/12 03:16:52;;;;;;;;;;;;;;;;;;5006426;28;19960;-83
2021/11/12 03:19:19;;;;;;;;;;;;;;;;;;5011107;28;19957;-84
2021/11/12 03:21:45;;;;;;;;;;;;;;;;;;5016122;28;20656;-83
2021/11/12 03:24:17;;;;;;;;;;;;;;;;;;5007528;28;20337;-83
2021/11/12 03:26:51;;;;;;;;;;;;;;;;;;5011297;28;19913;-85
2021/11/12 04:20:30;;;;;;;;;;;;;;;;;;4990615;28;19996;-86
2021/11/12 04:50:18;;;;;;;;;;;;;;;;;;4975375;28;19965;-90
2021/11/12 05:44:17;;;;;;;;;;;;;;;;;;4990771;28;19913;-91
2021/11/12 05:46:46;;;;;;;;;;;;;;;;;;4989850;28;20028;-89
2021/11/12 05:57:44;;;;;;;;;;;;;;;;;;4959437;28;20330;-85
2021/11/12 06:00:10;;;;;;;;;;;;;;;;;;5001640;28;19949;-84
2021/11/12 06:02:37;;;;;;;;;;;;;;;;;;4996518;28;19957;-85
2021/11/12 06:05:03;;;;;;;;;;;;;;;;;;5008529;28;19963;-84
2021/11/12 06:07:29;;;;;;;;;;;;;;;;;;5010754;28;19975;-84
2021/11/12 06:09:55;;;;;;;;;;;;;;;;;;5007426;28;19921;-83
2021/11/12 06:12:22;;;;;;;;;;;;;;;;;;5005816;28;19960;-84
2021/11/12 06:14:48;;;;;;;;;;;;;;;;;;5014298;28;19951;-83
2021/11/12 06:17:14;;;;;;;;;;;;;;;;;;5005621;28;19960;-83
2021/11/12 06:19:40;;;;;;;;;;;;;;;;;;5005958;28;19937;-82
2021/11/12 06:22:07;;;;;;;;;;;;;;;;;;5007547;28;19945;-83
2021/11/12 06:24:33;;;;;;;;;;;;;;;;;;5017347;28;19944;-86
2021/11/12 06:26:59;;;;;;;;;;;;;;;;;;5007838;28;20189;-91
2021/11/12 06:29:26;;;;;;;;;;;;;;;;;;5016668;28;19964;-91
2021/11/12 06:31:52;;;;;;;;;;;;;;;;;;5004540;28;19953;-86
2021/11/12 06:34:18;;;;;;;;;;;;;;;;;;5007406;28;19952;-81
2021/11/12 06:36:44;;;;;;;;;;;;;;;;;;5006519;28;19948;-84
2021/11/12 06:39:11;;;;;;;;;;;;;;;;;;4993455;28;20003;-84
2021/11/12 06:49:31;;;;;;;;;;;;;;;;;;5003808;28;21694;-84
2021/11/12 06:51:57;;;;;;;;;;;;;;;;;;5005543;28;19987;-84
2021/11/12 06:54:27;;;;;;;;;;;;;;;;;;5008340;28;20006;-84
2021/11/12 06:56:53;;;;;;;;;;;;;;;;;;4985522;28;20012;-84
2021/11/12 06:59:19;;;;;;;;;;;;;;;;;;4986997;28;20015;-84
2021/11/12 07:01:47;;;;;;;;;;;;;;;;;;4967915;28;19914;-84
2021/11/12 07:04:13;;;;;;;;;;;;;;;;;;4977325;28;19946;-84
2021/11/12 07:06:40;;;;;;;;;;;;;;;;;;4984206;28;20382;-85
2021/11/12 07:09:07;;;;;;;;;;;;;;;;;;4985832;28;19952;-84
2021/11/12 07:11:33;;;;;;;;;;;;;;;;;;4981497;28;19972;-84
2021/11/12 07:13:59;;;;;;;;;;;;;;;;;;4987369;28;20165;-84
2021/11/12 07:16:26;;;;;;;;;;;;;;;;;;4988197;28;20019;-84
2021/11/12 07:18:54;;;;;;;;;;;;;;;;;;4975837;28;20033;-86
2021/11/12 07:21:20;;;;;;;;;;;;;;;;;;4985471;28;20488;-84
2021/11/12 07:23:47;;;;;;;;;;;;;;;;;;4984462;28;19921;-83
2021/11/12 07:26:14;;;;;;;;;;;;;;;;;;4986649;28;19951;-83
2021/11/12 07:28:41;;;;;;;;;;;;;;;;;;4989269;28;19948;-86
2021/11/12 07:31:08;;;;;;;;;;;;;;;;;;4989575;28;19968;-84
2021/11/12 07:33:38;;;;;;;;;;;;;;;;;;4984605;28;20527;-84
2021/11/12 07:36:22;;;;;;;;;;;;;;;;;;4983540;28;19953;-84
2021/11/12 07:42:29;;;;;;;;;;;;;;;;;;4967616;28;20527;-83
2021/11/12 07:45:20;;;;;;;;;;;;;;;;;;4964970;28;19917;-85
2021/11/12 07:47:17;;;;;;;;;;;;;;;;;;4987755;28;19937;-84
2021/11/12 07:49:44;;;;;;;;;;;;;;;;;;4990134;28;19922;-85
2021/11/12 07:52:10;;;;;;;;;;;;;;;;;;4991346;28;19957;-84
2021/11/12 07:54:37;;;;;;;;;;;;;;;;;;4996630;28;20017;-84
2021/11/12 07:57:04;;;;;;;;;;;;;;;;;;5007812;28;19953;-83
2021/11/12 07:59:30;;;;;;;;;;;;;;;;;;5010056;28;19944;-85
2021/11/12 08:01:56;;;;;;;;;;;;;;;;;;5005546;28;19957;-85
2021/11/12 08:04:23;;;;;;;;;;;;;;;;;;5008583;28;19945;-83
2021/11/12 08:06:51;;;;;;;;;;;;;;;;;;5011710;28;20360;-84
2021/11/12 08:09:19;;;;;;;;;;;;;;;;;;5010494;28;19921;-82
2021/11/12 08:12:02;;;;;;;;;;;;;;;;;;5011263;28;19965;-84
2021/11/12 08:14:35;;;;;;;;;;;;;;;;;;5009693;28;21244;-84
2021/11/12 08:22:12;;;;;;;;;;;;;;;;;;5004757;28;19957;-84
2021/11/12 08:24:53;;;;;;;;;;;;;;;;;;5002979;28;19957;-84
2021/11/12 08:34:58;;;;;;;;;;;;;;;;;;5009356;28;20043;-83
2021/11/12 08:42:38;;;;;;;;;;;;;;;;;;5012851;28;19940;-84
2021/11/12 08:45:08;;;;;;;;;;;;;;;;;;5008557;28;19944;-84
2021/11/12 08:47:44;;;;;;;;;;;;;;;;;;5011298;28;19909;-84
2021/11/12 08:50:16;;;;;;;;;;;;;;;;;;5005148;28;20341;-84
2021/11/12 08:52:44;;;;;;;;;;;;;;;;;;5005087;28;19960;-84
2021/11/12 08:55:10;;;;;;;;;;;;;;;;;;5008880;28;20033;-84
2021/11/12 08:57:37;;;;;;;;;;;;;;;;;;5010684;28;19991;-84
2021/11/12 09:00:06;;;;;;;;;;;;;;;;;;5007697;28;19960;-84
2021/11/12 09:02:32;;;;;;;;;;;;;;;;;;4993671;28;19909;-84
2021/11/12 09:04:58;;;;;;;;;;;;;;;;;;5008945;28;19910;-84
2021/11/12 09:07:24;;;;;;;;;;;;;;;;;;5010078;28;19913;-83
2021/11/12 09:09:54;;;;;;;;;;;;;;;;;;5010050;28;19980;-84
2021/11/12 09:12:22;;;;;;;;;;;;;;;;;;4997753;28;20019;-84
2021/11/12 09:14:50;;;;;;;;;;;;;;;;;;5009030;28;19913;-84
2021/11/12 09:17:17;;;;;;;;;;;;;;;;;;5006595;28;19960;-84
2021/11/12 09:19:50;;;;;;;;;;;;;;;;;;5008951;28;20006;-84
2021/11/12 09:22:16;;;;;;;;;;;;;;;;;;5007714;28;19982;-84
2021/11/12 09:24:43;;;;;;;;;;;;;;;;;;5007537;28;19972;-83
2021/11/12 09:27:09;;;;;;;;;;;;;;;;;;5009335;28;20353;-84
2021/11/12 09:29:35;;;;;;;;;;;;;;;;;;5008830;28;20289;-83
2021/11/12 09:32:01;;;;;;;;;;;;;;;;;;5007760;28;19960;-83
2021/11/12 09:34:34;;;;;;;;;;;;;;;;;;5010153;28;19976;-83
2021/11/12 09:37:00;;;;;;;;;;;;;;;;;;5008181;28;20391;-84
2021/11/12 09:39:26;;;;;;;;;;;;;;;;;;5010659;28;19941;-84
2021/11/12 09:41:52;;;;;;;;;;;;;;;;;;5005803;28;19945;-84
2021/11/12 09:44:19;;;;;;;;;;;;;;;;;;5013664;28;19940;-83
2021/11/12 09:46:45;;;;;;;;;;;;;;;;;;5010855;28;19936;-84
2021/11/12 09:49:11;;;;;;;;;;;;;;;;;;5003530;28;19917;-83
2021/11/12 09:51:38;;;;;;;;;;;;;;;;;;5007772;28;19960;-84
2021/11/12 09:54:04;;;;;;;;;;;;;;;;;;5007997;28;19945;-85
2021/11/12 09:56:30;;;;;;;;;;;;;;;;;;5007994;28;19960;-83
2021/11/12 09:58:56;;;;;;;;;;;;;;;;;;5007521;28;19953;-83
2021/11/12 10:01:29;;;;;;;;;;;;;;;;;;4997047;28;20020;-83
2021/11/12 10:04:00;;;;;;;;;;;;;;;;;;5005882;28;20011;-84
2021/11/12 10:06:26;;;;;;;;;;;;;;;;;;5007311;28;20659;-84
2021/11/12 10:08:52;;;;;;;;;;;;;;;;;;5006871;28;20022;-84
2021/11/12 10:11:18;;;;;;;;;;;;;;;;;;5006334;28;20936;-84
2021/11/12 10:13:46;;;;;;;;;;;;;;;;;;4991483;28;20024;-84
2021/11/12 10:18:47;;;;;;;;;;;;;;;;;;4997766;28;20428;-84
2021/11/12 11:24:27;;;;;;;;;;;;;;;;;;4999964;28;22523;-86
2021/11/12 11:26:54;;;;;;;;;;;;;;;;;;4991867;28;19913;-85
2021/11/12 11:29:20;;;;;;;;;;;;;;;;;;4994373;28;20425;-86
2021/11/12 11:31:46;;;;;;;;;;;;;;;;;;4991529;28;19968;-86
2021/11/12 11:34:13;;;;;;;;;;;;;;;;;;4981493;28;21317;-85
2021/11/12 11:36:44;;;;;;;;;;;;;;;;;;4992751;28;19909;-87
2021/11/12 11:39:10;;;;;;;;;;;;;;;;;;4991925;28;20534;-86
2021/11/12 11:41:37;;;;;;;;;;;;;;;;;;4992218;28;20003;-85
2021/11/12 11:44:04;;;;;;;;;;;;;;;;;;4975106;28;19941;-86
2021/11/12 11:46:31;;;;;;;;;;;;;;;;;;4991802;28;19914;-85
2021/11/12 11:48:58;;;;;;;;;;;;;;;;;;4987139;28;20393;-85
2021/11/12 11:51:24;;;;;;;;;;;;;;;;;;4991122;28;19994;-86
2021/11/12 11:53:51;;;;;;;;;;;;;;;;;;4992512;28;20000;-85
2021/11/12 11:56:17;;;;;;;;;;;;;;;;;;5009723;28;19953;-86
2021/11/12 11:58:43;;;;;;;;;;;;;;;;;;5009237;28;19991;-86
2021/11/12 12:01:10;;;;;;;;;;;;;;;;;;5009568;28;19964;-86
2021/11/12 12:03:36;;;;;;;;;;;;;;;;;;5006903;28;19960;-86
2021/11/12 12:06:02;;;;;;;;;;;;;;;;;;5001509;28;20403;-85
2021/11/12 12:08:29;;;;;;;;;;;;;;;;;;4995806;28;19952;-84
2021/11/12 12:10:55;;;;;;;;;;;;;;;;;;5007076;28;19972;-84
2021/11/12 12:13:27;;;;;;;;;;;;;;;;;;5011045;28;19975;-85
2021/11/12 12:15:54;;;;;;;;;;;;;;;;;;5011028;28;20357;-85
2021/11/12 12:18:20;;;;;;;;;;;;;;;;;;4998436;28;19917;-85
2021/11/12 12:21:24;;;;;;;;;;;;;;;;;;5011510;28;19956;-85
2021/11/12 13:21:06;;;;;;;;;;;;;;;;;;4966335;28;19945;-84
2021/11/12 13:23:44;;;;;;;;;;;;;;;;;;4996130;28;19964;-86
2021/11/12 13:26:10;;;;;;;;;;;;;;;;;;5009323;28;19913;-86
2021/11/12 13:28:37;;;;;;;;;;;;;;;;;;5008938;28;20590;-86
2021/11/12 13:31:03;;;;;;;;;;;;;;;;;;5011538;28;20003;-85
2021/11/12 13:33:29;;;;;;;;;;;;;;;;;;5012371;28;19980;-88
2021/11/12 13:35:55;;;;;;;;;;;;;;;;;;5007973;28;19948;-87
2021/11/12 13:38:21;;;;;;;;;;;;;;;;;;4985631;28;19983;-88
2021/11/12 13:40:49;;;;;;;;;;;;;;;;;;4982425;28;20258;-85
2021/11/12 13:43:15;;;;;;;;;;;;;;;;;;5007504;28;20366;-85
2021/11/12 13:45:42;;;;;;;;;;;;;;;;;;4992195;28;20020;-85
2021/11/12 13:48:14;;;;;;;;;;;;;;;;;;5006753;28;20401;-85
2021/11/12 13:50:40;;;;;;;;;;;;;;;;;;5005853;28;19976;-85
2021/11/12 13:53:07;;;;;;;;;;;;;;;;;;5000182;28;21269;-86
2021/11/12 13:55:33;;;;;;;;;;;;;;;;;;4993899;28;19965;-84
2021/11/12 13:57:59;;;;;;;;;;;;;;;;;;4983480;28;20012;-85
2021/11/12 14:00:29;;;;;;;;;;;;;;;;;;4968838;28;19940;-84
2021/11/12 14:02:55;;;;;;;;;;;;;;;;;;4981800;28;20333;-86
2021/11/12 14:05:22;;;;;;;;;;;;;;;;;;4988329;28;19976;-85
2021/11/12 14:07:48;;;;;;;;;;;;;;;;;;4987590;28;19914;-84
2021/11/12 14:10:14;;;;;;;;;;;;;;;;;;4984690;28;19964;-85
2021/11/12 14:12:41;;;;;;;;;;;;;;;;;;4985824;28;19956;-85
2021/11/12 14:15:15;;;;;;;;;;;;;;;;;;4968408;28;19918;-85
2021/11/12 14:17:57;;;;;;;;;;;;;;;;;;4985994;28;20019;-85
2021/11/12 14:20:34;;;;;;;;;;;;;;;;;;4987041;28;19968;-85
2021/11/12 14:23:00;;;;;;;;;;;;;;;;;;4984808;28;20386;-85
2021/11/12 14:26:16;;;;;;;;;;;;;;;;;;4969713;28;20347;-84
2021/11/12 14:28:21;;;;;;;;;;;;;;;;;;4981376;28;19954;-86
2021/11/12 14:34:04;;;;;;;;;;;;;;;;;;4909515;29;19926;-87
2021/11/12 14:36:49;;;;;;;;;;;;;;;;;;4904624;29;20009;-86
2021/11/12 14:42:35;;;;;;;;;;;;;;;;;;4991175;28;19913;-87
2021/11/12 14:45:07;;;;;;;;;;;;;;;;;;4987031;28;19945;-86
2021/11/12 14:47:40;;;;;;;;;;;;;;;;;;4985918;28;19971;-90
2021/11/12 14:50:12;;;;;;;;;;;;;;;;;;4987976;28;20027;-88
2021/11/12 14:52:39;;;;;;;;;;;;;;;;;;4990510;28;20413;-88
2021/11/12 14:55:08;;;;;;;;;;;;;;;;;;5000043;28;19956;-88
2021/11/12 14:57:38;;;;;;;;;;;;;;;;;;5009167;28;19945;-89
2021/11/12 15:00:09;;;;;;;;;;;;;;;;;;5008633;28;19995;-88
2021/11/12 15:02:36;;;;;;;;;;;;;;;;;;5010352;28;20888;-85
2021/11/12 15:05:02;;;;;;;;;;;;;;;;;;5006182;28;19964;-87
2021/11/12 15:07:32;;;;;;;;;;;;;;;;;;5009830;28;19922;-87
2021/11/12 15:09:59;;;;;;;;;;;;;;;;;;5009600;28;20471;-86
2021/11/12 15:12:25;;;;;;;;;;;;;;;;;;5009330;28;19961;-91
2021/11/12 15:14:59;;;;;;;;;;;;;;;;;;5011246;28;19953;-83
2021/11/12 15:17:30;;;;;;;;;;;;;;;;;;4990015;28;20045;-82
2021/11/12 15:19:57;;;;;;;;;;;;;;;;;;5007651;28;20404;-83
2021/11/12 15:30:53;;;;;;;;;;;;;;;;;;4976874;28;20462;-83
2021/11/12 15:33:20;;;;;;;;;;;;;;;;;;5007981;28;20281;-83
2021/11/12 15:35:48;;;;;;;;;;;;;;;;;;5009250;28;19957;-83
2021/11/12 15:38:26;;;;;;;;;;;;;;;;;;5006537;28;21065;-82
2021/11/12 15:41:00;;;;;;;;;;;;;;;;;;5008278;28;19963;-83
2021/11/12 15:43:28;;;;;;;;;;;;;;;;;;5006652;28;20960;-83
2021/11/12 15:48:25;;;;;;;;;;;;;;;;;;5008659;28;19960;-84
2021/11/12 16:06:47;;;;;;;;;;;;;;;;;;5005782;28;19953;-82
2021/11/12 16:09:25;;;;;;;;;;;;;;;;;;5007706;28;19976;-83
2021/11/12 16:23:13;;;;;;;;;;;;;;;;;;5015347;28;19941;-84
2021/11/12 16:25:19;;;;;;;;;;;;;;;;;;5002740;28;20010;-83
2021/11/12 16:27:48;;;;;;;;;;;;;;;;;;5018666;28;20435;-82
2021/11/12 16:30:14;;;;;;;;;;;;;;;;;;5008187;28;20395;-83
2021/11/12 16:32:46;;;;;;;;;;;;;;;;;;5001375;28;19944;-83
2021/11/12 16:35:14;;;;;;;;;;;;;;;;;;5007393;28;19949;-84
2021/11/12 16:37:41;;;;;;;;;;;;;;;;;;4992988;28;20623;-82
2021/11/12 16:46:04;;;;;;;;;;;;;;;;;;4976881;28;20493;-83
2021/11/12 17:07:21;;;;;;;;;;;;;;;;;;5004712;28;19953;-83
2021/11/12 17:47:14;;;;;;;;;;;;;;;;;;5002290;28;19972;-81
2021/11/12 17:52:26;;;;;;;;;;;;;;;;;;5010615;28;19922;-82
2021/11/12 18:03:18;;;;;;;;;;;;;;;;;;4982608;28;19914;-84
2021/11/12 18:05:52;;;;;;;;;;;;;;;;;;4988388;28;19987;-82
2021/11/12 18:11:33;;;;;;;;;;;;;;;;;;4973687;28;19965;-84
2021/11/12 21:48:15;;;;;;;;;;;;;;;;;;5012618;28;24391;-81
2021/11/12 21:50:42;;;;;;;;;;;;;;;;;;5011704;28;20320;-80
2021/11/12 21:53:08;;;;;;;;;;;;;;;;;;5007648;28;19949;-81
2021/11/12 21:55:34;;;;;;;;;;;;;;;;;;5011000;28;19926;-82
2021/11/12 21:58:00;;;;;;;;;;;;;;;;;;5021843;28;19917;-83
2021/11/12 22:00:27;;;;;;;;;;;;;;;;;;5013314;28;19968;-82
2021/11/12 22:02:53;;;;;;;;;;;;;;;;;;5012748;28;19917;-83
2021/11/12 22:05:20;;;;;;;;;;;;;;;;;;5012081;28;19917;-83
2021/11/12 22:07:46;;;;;;;;;;;;;;;;;;5013231;28;19913;-83
2021/11/12 22:10:12;;;;;;;;;;;;;;;;;;5009999;28;19928;-81
2021/11/12 22:12:38;;;;;;;;;;;;;;;;;;5015733;28;19929;-82
2021/11/12 22:15:05;;;;;;;;;;;;;;;;;;5009956;28;19960;-81
2021/11/12 22:17:31;;;;;;;;;;;;;;;;;;5012081;28;19952;-82
2021/11/12 22:19:57;;;;;;;;;;;;;;;;;;5009306;28;19956;-81
2021/11/12 22:22:23;;;;;;;;;;;;;;;;;;5008206;28;20377;-84
2021/11/12 22:24:50;;;;;;;;;;;;;;;;;;5008771;28;19964;-83
2021/11/12 22:27:16;;;;;;;;;;;;;;;;;;5009148;28;21944;-82
2021/11/12 22:29:42;;;;;;;;;;;;;;;;;;5008791;28;19918;-82
2021/11/12 22:32:09;;;;;;;;;;;;;;;;;;5022270;28;19922;-83
2021/11/12 22:34:35;;;;;;;;;;;;;;;;;;5023668;28;19917;-80
2021/11/12 22:37:01;;;;;;;;;;;;;;;;;;5024293;28;19910;-82
2021/11/12 22:39:27;;;;;;;;;;;;;;;;;;5025944;28;20160;-81
2021/11/12 22:41:53;;;;;;;;;;;;;;;;;;5022931;28;19936;-81
2021/11/12 22:44:20;;;;;;;;;;;;;;;;;;5018810;28;19913;-81
2021/11/12 22:46:46;;;;;;;;;;;;;;;;;;5015480;28;19910;-82
2021/11/12 22:49:12;;;;;;;;;;;;;;;;;;5020894;28;19913;-81
2021/11/12 22:51:38;;;;;;;;;;;;;;;;;;5014674;28;19921;-82
2021/11/12 22:54:05;;;;;;;;;;;;;;;;;;5013686;28;19913;-82
2021/11/12 22:56:31;;;;;;;;;;;;;;;;;;5019353;28;19932;-82
2021/11/12 22:58:57;;;;;;;;;;;;;;;;;;5014671;28;20696;-81
2021/11/12 23:01:23;;;;;;;;;;;;;;;;;;5008788;28;19953;-81
2021/11/12 23:03:49;;;;;;;;;;;;;;;;;;5003086;28;19944;-82
2021/11/12 23:06:16;;;;;;;;;;;;;;;;;;5005317;28;19913;-80
2021/11/12 23:08:42;;;;;;;;;;;;;;;;;;5015075;28;20269;-83
2021/11/12 23:11:11;;;;;;;;;;;;;;;;;;5001551;28;19949;-82
2021/11/12 23:13:37;;;;;;;;;;;;;;;;;;5011951;28;19948;-81
2021/11/12 23:16:03;;;;;;;;;;;;;;;;;;5019852;28;19917;-83
2021/11/12 23:18:29;;;;;;;;;;;;;;;;;;5023208;28;19972;-83
2021/11/12 23:20:56;;;;;;;;;;;;;;;;;;5023823;28;19909;-83
2021/11/12 23:23:22;;;;;;;;;;;;;;;;;;5024184;28;19917;-82
2021/11/12 23:25:48;;;;;;;;;;;;;;;;;;5012275;28;20011;-82
2021/11/12 23:28:14;;;;;;;;;;;;;;;;;;5023270;28;19976;-82
2021/11/12 23:30:40;;;;;;;;;;;;;;;;;;5020680;28;19914;-83
2021/11/12 23:33:07;;;;;;;;;;;;;;;;;;5013299;28;19987;-82
2021/11/12 23:35:33;;;;;;;;;;;;;;;;;;5017855;28;19959;-82
2021/11/12 23:37:59;;;;;;;;;;;;;;;;;;5018927;28;20002;-82
2021/11/12 23:40:25;;;;;;;;;;;;;;;;;;5023106;28;20547;-83
2021/11/12 23:42:52;;;;;;;;;;;;;;;;;;5012790;28;19948;-83
2021/11/12 23:45:18;;;;;;;;;;;;;;;;;;5013724;28;19948;-82
2021/11/12 23:47:44;;;;;;;;;;;;;;;;;;5016849;28;19952;-82
2021/11/12 23:50:10;;;;;;;;;;;;;;;;;;5011631;28;20324;-83
2021/11/12 23:52:36;;;;;;;;;;;;;;;;;;5014783;28;19953;-84
2021/11/12 23:55:04;;;;;;;;;;;;;;;;;;5012727;28;20266;-83
2021/11/12 23:57:30;;;;;;;;;;;;;;;;;;5014002;28;19909;-83
2021/11/12 23:59:56;;;;;;;;;;;;;;;;;;5013074;28;19909;-82
